sensor_id;sensor_type;location;lat;lon;timestamp;pressure;altitude;pressure_sealevel;temperature;humidity
69593;BME280;56796;50.122;14.468;2023-02-18T00:13:06;981.59;;;9.95;97.62
69593;BME280;56796;50.122;14.468;2023-02-18T00:32:33;981.74;;;10.13;98.14
69593;BME280;56796;50.122;14.468;2023-02-18T00:51:59;981.68;;;10.17;97.96
69593;BME280;56796;50.122;14.468;2023-02-18T01:11:27;981.58;;;10.2;95.16
69593;BME280;56796;50.122;14.468;2023-02-18T01:30:53;981.73;;;10.42;90.62
69593;BME280;56796;50.122;14.468;2023-02-18T01:50:19;981.76;;;10.26;89.22
69593;BME280;56796;50.122;14.468;2023-02-18T02:09:44;981.79;;;10.18;89.02
69593;BME280;56796;50.122;14.468;2023-02-18T02:48:44;981.45;;;10.13;86.87
69593;BME280;56796;50.122;14.468;2023-02-18T03:08:08;981.61;;;10.13;86.24
69593;BME280;56796;50.122;14.468;2023-02-18T03:27:32;981.57;;;10.28;86.16
69593;BME280;56796;50.122;14.468;2023-02-18T03:46:58;981.63;;;10;88.02
69593;BME280;56796;50.122;14.468;2023-02-18T04:06:24;981.61;;;10.12;86.84
69593;BME280;56796;50.122;14.468;2023-02-18T04:25:50;981.66;;;10.02;86.67
69593;BME280;56796;50.122;14.468;2023-02-18T04:45:16;981.54;;;10.09;85.37
69593;BME280;56796;50.122;14.468;2023-02-18T05:04:42;981.75;;;10.22;83.29
69593;BME280;56796;50.122;14.468;2023-02-18T05:24:09;981.76;;;10.3;82.34
69593;BME280;56796;50.122;14.468;2023-02-18T05:43:35;981.66;;;10.16;82.71
69593;BME280;56796;50.122;14.468;2023-02-18T06:03:03;981.6;;;10.02;83.25
69593;BME280;56796;50.122;14.468;2023-02-18T06:22:28;981.54;;;10.22;82.34
69593;BME280;56796;50.122;14.468;2023-02-18T06:41:53;981.48;;;10.25;82.29
69593;BME280;56796;50.122;14.468;2023-02-18T07:01:20;981.41;;;10.22;82.33
69593;BME280;56796;50.122;14.468;2023-02-18T07:20:47;981.13;;;10.35;81.9
69593;BME280;56796;50.122;14.468;2023-02-18T07:40:15;980.97;;;10.6;80.95
69593;BME280;56796;50.122;14.468;2023-02-18T07:59:41;981.13;;;10.89;80.37
69593;BME280;56796;50.122;14.468;2023-02-18T08:19:09;980.94;;;11.01;81.58
69593;BME280;56796;50.122;14.468;2023-02-18T08:38:34;980.63;;;11.22;81.83
69593;BME280;56796;50.122;14.468;2023-02-18T08:58:03;980.37;;;11.64;81.78
69593;BME280;56796;50.122;14.468;2023-02-18T09:17:30;980.28;;;11.95;80.8
69593;BME280;56796;50.122;14.468;2023-02-18T09:36:57;980.12;;;11.88;81.53
69593;BME280;56796;50.122;14.468;2023-02-18T09:56:26;979.91;;;11.76;82.94
69593;BME280;56796;50.122;14.468;2023-02-18T10:15:49;979.53;;;11.77;83.53
69593;BME280;56796;50.122;14.468;2023-02-18T10:35:16;979.15;;;12.14;82.68
69593;BME280;56796;50.122;14.468;2023-02-18T10:54:47;978.84;;;12.1;85.74
69593;BME280;56796;50.122;14.468;2023-02-18T11:14:11;978.39;;;12.51;82.31
69593;BME280;56796;50.122;14.468;2023-02-18T11:33:46;978.21;;;12.95;78.39
69593;BME280;56796;50.122;14.468;2023-02-18T11:52:59;977.79;;;13.22;76.03
69593;BME280;56796;50.122;14.468;2023-02-18T12:12:29;977.4;;;13.56;73.3
69593;BME280;56796;50.122;14.468;2023-02-18T12:31:55;977.19;;;12.73;73.97
69593;BME280;56796;50.122;14.468;2023-02-18T12:51:21;976.98;;;12.72;70.06
69593;BME280;56796;50.122;14.468;2023-02-18T13:10:45;976.98;;;12.84;67.34
69593;BME280;56796;50.122;14.468;2023-02-18T13:30:15;976.66;;;13.07;66.07
69593;BME280;56796;50.122;14.468;2023-02-18T13:49:39;976.69;;;13.33;65.15
69593;BME280;56796;50.122;14.468;2023-02-18T14:47:59;976.67;;;12.64;65.9
69593;BME280;56796;50.122;14.468;2023-02-18T15:07:22;976.79;;;12.35;66.68
69593;BME280;56796;50.122;14.468;2023-02-18T15:26:40;976.78;;;12.04;67.48
69593;BME280;56796;50.122;14.468;2023-02-18T15:46:07;976.95;;;11.9;67.8
69593;BME280;56796;50.122;14.468;2023-02-18T16:05:30;977.59;;;11.51;69.77
69593;BME280;56796;50.122;14.468;2023-02-18T16:24:56;977.74;;;11.32;70.48
69593;BME280;56796;50.122;14.468;2023-02-18T16:44:20;977.83;;;11.17;71.17
69593;BME280;56796;50.122;14.468;2023-02-18T17:03:47;978.11;;;10.91;72.62
69593;BME280;56796;50.122;14.468;2023-02-18T17:23:13;978.39;;;10.65;74.31
69593;BME280;56796;50.122;14.468;2023-02-18T17:42:37;978.77;;;10.4;76.36
69593;BME280;56796;50.122;14.468;2023-02-18T18:02:05;978.99;;;10.43;76.56
69593;BME280;56796;50.122;14.468;2023-02-18T18:21:31;978.97;;;10.41;76.76
69593;BME280;56796;50.122;14.468;2023-02-18T18:40:55;978.87;;;10.1;78.03
69593;BME280;56796;50.122;14.468;2023-02-18T19:00:21;978.99;;;9.84;79.42
69593;BME280;56796;50.122;14.468;2023-02-18T19:19:46;979.1;;;9.96;79.19
69593;BME280;56796;50.122;14.468;2023-02-18T19:39:12;979.23;;;10.03;79.27
69593;BME280;56796;50.122;14.468;2023-02-18T19:58:39;979.35;;;9.8;83.03
69593;BME280;56796;50.122;14.468;2023-02-18T20:18:05;979.76;;;9.85;82.6
69593;BME280;56796;50.122;14.468;2023-02-18T20:37:31;979.83;;;9.43;87.9
69593;BME280;56796;50.122;14.468;2023-02-18T20:56:55;979.97;;;9.22;89.33
69593;BME280;56796;50.122;14.468;2023-02-18T21:16:22;980.02;;;9.43;87.21
69593;BME280;56796;50.122;14.468;2023-02-18T21:35:47;980.05;;;9.64;85.08
69593;BME280;56796;50.122;14.468;2023-02-18T21:55:14;980.03;;;9.63;84.82
69593;BME280;56796;50.122;14.468;2023-02-18T22:14:41;980.07;;;9.41;85.44
69593;BME280;56796;50.122;14.468;2023-02-18T22:34:07;979.95;;;9.35;85.83
69593;BME280;56796;50.122;14.468;2023-02-18T22:53:31;980.05;;;9.24;87.05
69593;BME280;56796;50.122;14.468;2023-02-18T23:12:57;980.08;;;9.26;87.06
69593;BME280;56796;50.122;14.468;2023-02-18T23:32:23;980.01;;;9.13;89.03
69593;BME280;56796;50.122;14.468;2023-02-18T23:51:48;979.67;;;9;90.29
